Time;durP1;ratioP1;P1;durP2;ratioP2;P2;SDS_P1;SDS_P2;PMS_P1;PMS_P2;Temp;Humidity;BMP_temperature;BMP_pressure;BME280_temperature;BME280_humidity;BME280_pressure;Samples;Min_cycle;Max_cycle;Signal;HPM_P1;HPM_P2
2023/10/13 00:01:04;;;;;;;21.08;8.85;;;;;;;15.91;100.00;93131.06;6309674;22;20015;-79
2023/10/13 00:03:31;;;;;;;13.85;8.90;;;;;;;15.88;100.00;93126.41;6282421;22;20003;-79
2023/10/13 00:06:03;;;;;;;19.17;10.88;;;;;;;15.86;100.00;93134.63;6309754;22;20007;-79
2023/10/13 00:08:29;;;;;;;18.67;10.45;;;;;;;15.82;100.00;93133.66;6310466;22;20011;-79
2023/10/13 00:10:59;;;;;;;20.73;9.50;;;;;;;15.79;100.00;93131.63;6310151;22;20053;-79
2023/10/13 00:13:34;;;;;;;16.05;9.20;;;;;;;15.79;100.00;93129.00;6309724;22;20329;-79
2023/10/13 00:15:59;;;;;;;18.00;9.77;;;;;;;15.77;100.00;93131.16;6309990;22;20033;-79
2023/10/13 00:18:44;;;;;;;15.20;9.60;;;;;;;15.77;100.00;93137.22;6309404;22;20442;-79
2023/10/13 00:21:13;;;;;;;17.08;9.52;;;;;;;15.77;100.00;93126.66;6281826;22;20018;-79
2023/10/13 00:23:53;;;;;;;14.23;8.77;;;;;;;15.78;100.00;93127.44;6309411;22;20495;-79
2023/10/13 00:26:28;;;;;;;16.17;9.63;;;;;;;15.79;100.00;93124.50;6309121;22;20011;-79
2023/10/13 00:31:33;;;;;;;14.27;9.15;;;;;;;15.80;100.00;93128.69;6309860;22;20034;-79
2023/10/13 00:34:09;;;;;;;17.73;9.73;;;;;;;15.79;100.00;93126.34;6282616;22;20043;-79
2023/10/13 00:36:36;;;;;;;17.17;9.77;;;;;;;15.79;100.00;93123.72;6281164;22;20284;-79
2023/10/13 00:39:03;;;;;;;18.13;9.52;;;;;;;15.80;100.00;93114.72;6282452;22;20035;-79
2023/10/13 00:44:16;;;;;;;18.02;8.80;;;;;;;15.81;100.00;93105.72;6310265;22;20381;-79
2023/10/13 00:46:45;;;;;;;18.10;10.10;;;;;;;15.82;100.00;93109.91;6310042;22;20357;-79
2023/10/13 00:49:15;;;;;;;16.48;8.77;;;;;;;15.81;100.00;93108.34;6282390;22;20019;-78
2023/10/13 00:51:47;;;;;;;15.23;8.75;;;;;;;15.82;100.00;93109.91;6282596;22;20022;-79
2023/10/13 00:54:16;;;;;;;18.67;8.70;;;;;;;15.78;100.00;93107.09;6310482;22;20016;-79
2023/10/13 00:56:52;;;;;;;18.02;9.40;;;;;;;15.79;100.00;93106.00;6309932;22;20017;-79
2023/10/13 00:59:23;;;;;;;19.55;9.38;;;;;;;15.79;100.00;93110.53;6309934;22;20012;-79
2023/10/13 01:01:54;;;;;;;18.23;9.65;;;;;;;15.75;100.00;93109.56;6282811;22;20046;-78
2023/10/13 01:04:20;;;;;;;16.10;8.63;;;;;;;15.72;100.00;93100.38;6310696;22;20011;-79
2023/10/13 01:06:46;;;;;;;20.95;9.38;;;;;;;15.73;100.00;93104.56;6309809;22;20004;-79
2023/10/13 01:09:13;;;;;;;13.60;8.50;;;;;;;15.72;100.00;93096.97;6312017;22;20091;-79
2023/10/13 01:11:44;;;;;;;17.20;8.88;;;;;;;15.71;100.00;93090.13;6312177;22;20015;-79
2023/10/13 01:14:17;;;;;;;17.65;9.20;;;;;;;15.68;100.00;93082.78;6311905;22;20022;-79
2023/10/13 01:16:44;;;;;;;15.45;9.07;;;;;;;15.68;100.00;93090.72;6258916;22;20011;-79
2023/10/13 01:19:18;;;;;;;15.18;8.50;;;;;;;15.69;100.00;93094.91;6312230;22;20007;-79
2023/10/13 01:21:47;;;;;;;18.23;9.10;;;;;;;15.66;100.00;93091.00;6312589;22;20060;-79
2023/10/13 01:24:15;;;;;;;19.02;9.60;;;;;;;15.68;100.00;93088.06;6285343;22;20015;-79
2023/10/13 01:26:42;;;;;;;21.75;9.45;;;;;;;15.68;100.00;93088.06;6284899;22;20022;-79
2023/10/13 01:29:14;;;;;;;18.15;9.13;;;;;;;15.68;100.00;93088.06;6285430;22;20015;-79
2023/10/13 01:31:47;;;;;;;18.42;9.35;;;;;;;15.69;100.00;93086.97;6284861;22;20345;-79
2023/10/13 01:34:23;;;;;;;15.25;8.48;;;;;;;15.67;100.00;93084.66;6285337;22;20711;-79
2023/10/13 01:36:53;;;;;;;24.08;8.60;;;;;;;15.62;100.00;93082.91;6311793;22;20022;-78
2023/10/13 01:39:21;;;;;;;14.77;8.57;;;;;;;15.65;100.00;93086.03;6312005;22;20011;-79
2023/10/13 01:41:53;;;;;;;15.27;8.73;;;;;;;15.65;100.00;93092.09;6285145;22;20007;-79
2023/10/13 01:44:19;;;;;;;15.88;8.63;;;;;;;15.68;100.00;93080.94;6284573;22;20069;-78
2023/10/13 01:46:45;;;;;;;15.43;8.95;;;;;;;15.66;100.00;93077.03;6284225;22;20012;-79
2023/10/13 01:49:11;;;;;;;18.13;9.20;;;;;;;15.61;100.00;93070.03;6312365;22;19999;-79
2023/10/13 01:51:39;;;;;;;16.77;9.00;;;;;;;15.62;100.00;93071.56;6312481;22;20015;-79
2023/10/13 01:54:11;;;;;;;15.43;8.43;;;;;;;15.62;100.00;93069.72;6311713;22;20016;-79
2023/10/13 01:56:42;;;;;;;15.60;8.45;;;;;;;15.65;100.00;93075.47;6253692;22;20015;-79
2023/10/13 01:59:10;;;;;;;18.85;8.55;;;;;;;15.64;100.00;93068.66;6254470;22;20443;-79
2023/10/13 02:01:35;;;;;;;20.17;8.77;;;;;;;15.61;100.00;93076.09;6279446;22;19995;-79
2023/10/13 02:04:06;;;;;;;22.35;9.30;;;;;;;15.62;100.00;93068.94;6254294;22;20042;-79
2023/10/13 02:06:33;;;;;;;17.95;8.40;;;;;;;15.59;100.00;93072.97;6279521;22;20046;-78
2023/10/13 02:09:13;;;;;;;18.23;9.00;;;;;;;15.60;100.00;93074.53;6279615;22;20032;-79
2023/10/13 02:11:47;;;;;;;15.57;8.63;;;;;;;15.61;100.00;93078.72;6278574;22;20348;-79
2023/10/13 02:14:16;;;;;;;19.35;8.20;;;;;;;15.62;100.00;93080.25;6279782;22;20011;-79
2023/10/13 02:16:42;;;;;;;21.63;9.18;;;;;;;15.61;100.00;93084.00;6253917;22;20551;-79
2023/10/13 02:19:08;;;;;;;15.02;8.23;;;;;;;15.62;100.00;93080.25;6279211;22;20031;-79
2023/10/13 02:21:43;;;;;;;18.05;8.93;;;;;;;15.62;100.00;93082.13;6254439;22;20019;-78
2023/10/13 02:24:17;;;;;;;14.27;8.23;;;;;;;15.60;100.00;93081.66;6280864;22;20043;-79
2023/10/13 02:26:44;;;;;;;13.38;8.10;;;;;;;15.59;100.00;93074.84;6277861;22;20039;-78
2023/10/13 02:29:13;;;;;;;16.20;8.05;;;;;;;15.57;100.00;93072.47;6253756;22;20018;-79
2023/10/13 02:31:40;;;;;;;17.38;8.27;;;;;;;15.58;100.00;93079.34;6278819;22;20011;-79
2023/10/13 02:34:11;;;;;;;17.08;8.57;;;;;;;15.55;100.00;93082.56;6278826;22;20075;-79
2023/10/13 02:36:51;;;;;;;16.97;8.60;;;;;;;15.53;100.00;93074.16;6279577;22;20452;-81
2023/10/13 02:39:17;;;;;;;19.02;8.18;;;;;;;15.54;100.00;93075.75;6254422;22;20039;-79
2023/10/13 02:41:47;;;;;;;15.63;8.32;;;;;;;15.54;100.00;93078.38;6279248;22;20000;-79
2023/10/13 02:44:26;;;;;;;11.82;7.28;;;;;;;15.55;100.00;93071.22;6280920;22;20012;-78
2023/10/13 02:46:55;;;;;;;16.15;7.78;;;;;;;15.56;100.00;93072.81;6279778;22;20026;-78
2023/10/13 02:49:25;;;;;;;13.20;7.55;;;;;;;15.55;100.00;93066.72;6279400;22;20496;-79
2023/10/13 02:51:52;;;;;;;12.65;7.13;;;;;;;15.53;100.00;93073.38;6280473;22;20065;-79
2023/10/13 02:54:18;;;;;;;17.48;8.13;;;;;;;15.51;100.00;93063.13;6278069;22;20010;-79
2023/10/13 02:56:59;;;;;;;16.08;7.95;;;;;;;15.54;100.00;93069.69;6297784;22;20015;-79
2023/10/13 02:59:34;;;;;;;15.75;7.53;;;;;;;15.53;100.00;93062.84;6287093;22;20063;-79
2023/10/13 03:04:48;;;;;;;19.25;7.82;;;;;;;15.48;100.00;93061.09;6283866;22;20349;-79
2023/10/13 03:07:23;;;;;;;16.38;7.10;;;;;;;15.48;100.00;93068.25;6310133;22;20035;-79
2023/10/13 03:09:50;;;;;;;17.55;8.20;;;;;;;15.46;100.00;93065.13;6257394;22;20015;-80
2023/10/13 03:12:17;;;;;;;16.40;7.82;;;;;;;15.42;100.00;93062.31;6310984;22;20062;-81
2023/10/13 03:14:47;;;;;;;15.95;8.02;;;;;;;15.42;100.00;93067.59;6310165;22;20018;-80
2023/10/13 03:17:18;;;;;;;14.88;8.30;;;;;;;15.43;100.00;93066.50;6282910;22;20449;-81
2023/10/13 03:19:51;;;;;;;17.77;8.07;;;;;;;15.41;100.00;93060.75;6283046;22;20021;-80
2023/10/13 03:22:18;;;;;;;12.55;7.40;;;;;;;15.42;100.00;93059.66;6282834;22;20022;-80
2023/10/13 03:24:46;;;;;;;15.55;7.80;;;;;;;15.44;100.00;93060.16;6311244;22;20002;-81
2023/10/13 03:27:16;;;;;;;16.27;7.60;;;;;;;15.45;100.00;93056.44;6283371;22;20046;-80
2023/10/13 03:29:43;;;;;;;17.40;7.75;;;;;;;15.43;100.00;93053.31;6282770;22;20441;-81
2023/10/13 03:32:15;;;;;;;13.93;7.40;;;;;;;15.41;100.00;93048.34;6283150;22;20419;-81
2023/10/13 03:35:36;;;;;;;18.73;7.80;;;;;;;15.44;100.00;93054.88;6310884;22;20011;-80
2023/10/13 03:37:40;;;;;;;16.88;6.97;;;;;;;15.43;100.00;93050.69;6266318;22;20035;-80
2023/10/13 03:46:07;;;;;;;15.32;8.18;;;;;;;15.52;100.00;93051.50;6310235;22;20479;-80
2023/10/13 03:48:40;;;;;;;11.98;6.75;;;;;;;15.52;100.00;93051.50;6310903;22;20039;-81
2023/10/13 03:53:50;;;;;;;15.60;7.20;;;;;;;15.47;100.00;93054.28;6309654;22;20007;-80
2023/10/13 03:56:17;;;;;;;11.38;7.20;;;;;;;15.45;100.00;93053.81;6310252;22;20522;-80
2023/10/13 03:58:45;;;;;;;13.60;7.68;;;;;;;15.46;100.00;93058.00;6282819;22;20015;-80
2023/10/13 04:01:14;;;;;;;14.85;7.43;;;;;;;15.45;100.00;93056.44;6309987;22;20030;-80
2023/10/13 04:03:56;;;;;;;16.02;7.85;;;;;;;15.46;100.00;93046.66;6309938;22;20042;-80
2023/10/13 04:06:51;;;;;;;16.40;7.90;;;;;;;15.47;100.00;93043.72;6285865;22;20035;-81
2023/10/13 04:17:22;;;;;;;18.65;7.55;;;;;;;15.47;100.00;93056.94;6309901;22;20007;-80
2023/10/13 04:36:45;;;;;;;11.55;6.88;;;;;;;15.41;100.00;93060.75;6308348;22;20004;-80
2023/10/13 04:41:39;;;;;;;16.85;7.20;;;;;;;15.39;100.00;93058.41;6307161;22;20003;-83
2023/10/13 04:54:45;;;;;;;17.35;8.55;;;;;;;15.36;100.00;93058.25;6307320;22;20015;-82
2023/10/13 06:31:12;;;;;;;14.27;6.93;;;;;;;15.15;100.00;93126.50;6313280;22;20021;-80
2023/10/13 06:33:42;;;;;;;15.15;7.95;;;;;;;15.17;100.00;93124.34;6312294;22;20071;-79
2023/10/13 06:36:10;;;;;;;14.15;6.70;;;;;;;15.20;100.00;93131.69;6259330;22;20340;-80
2023/10/13 06:42:02;;;;;;;11.27;6.78;;;;;;;15.27;100.00;93137.31;6314140;22;20007;-80
2023/10/13 06:44:32;;;;;;;20.65;7.53;;;;;;;15.33;100.00;93144.03;6313985;22;19999;-80
2023/10/13 06:47:05;;;;;;;11.60;6.65;;;;;;;15.38;100.00;93135.22;6312951;22;20038;-79
2023/10/13 06:49:38;;;;;;;14.93;6.57;;;;;;;15.40;100.00;93138.31;6285191;22;20113;-79
2023/10/13 06:52:06;;;;;;;13.05;6.65;;;;;;;15.44;100.00;93144.56;6312834;22;20015;-79
2023/10/13 06:54:37;;;;;;;20.63;7.55;;;;;;;15.51;100.00;93149.44;6311874;22;20007;-79
2023/10/13 06:57:06;;;;;;;19.85;7.90;;;;;;;15.49;100.00;93146.31;6285097;22;20007;-81
2023/10/13 06:59:34;;;;;;;18.98;7.70;;;;;;;15.55;100.00;93145.88;6312270;22;20064;-80
2023/10/13 07:02:34;;;;;;;17.25;8.00;;;;;;;15.60;100.00;93158.97;6285332;22;20037;-81
2023/10/13 07:05:17;;;;;;;15.27;7.35;;;;;;;15.66;100.00;93153.56;6311652;22;20003;-80
2023/10/13 07:07:44;;;;;;;12.18;6.85;;;;;;;15.67;100.00;93158.56;6263000;22;20037;-80
2023/10/13 07:10:11;;;;;;;11.55;6.40;;;;;;;15.71;100.00;93156.88;6312209;22;20006;-79
2023/10/13 07:12:49;;;;;;;13.60;6.43;;;;;;;15.77;100.00;93168.88;6283917;22;20015;-80
2023/10/13 07:17:44;;;;;;;12.85;6.80;;;;;;;15.85;100.00;93174.50;6311332;22;20034;-79
2023/10/13 07:23:02;;;;;;;14.13;6.45;;;;;;;15.92;100.00;93174.84;6285835;22;20015;-78
2023/10/13 07:26:08;;;;;;;15.05;7.07;;;;;;;15.94;100.00;93178.78;6281832;22;20046;-80
2023/10/13 07:28:43;;;;;;;15.98;6.65;;;;;;;15.97;100.00;93178.16;6312157;22;20068;-80
2023/10/13 07:31:19;;;;;;;14.25;6.72;;;;;;;16.02;100.00;93179.91;6285669;22;20015;-80
2023/10/13 07:33:44;;;;;;;19.95;7.30;;;;;;;16.12;100.00;93184.13;6286127;22;20011;-80
2023/10/13 07:38:59;;;;;;;12.10;6.80;;;;;;;16.22;100.00;93178.59;6285372;22;20014;-79
2023/10/13 07:41:36;;;;;;;13.88;8.07;;;;;;;16.24;100.00;93184.38;6311470;22;20433;-80
2023/10/13 07:44:04;;;;;;;13.32;7.32;;;;;;;16.22;100.00;93182.03;6285178;22;20011;-80
2023/10/13 07:47:02;;;;;;;16.08;7.32;;;;;;;16.25;100.00;93183.28;6285464;22;20018;-81
2023/10/13 07:49:36;;;;;;;15.38;6.22;;;;;;;16.41;100.00;93181.00;6312377;22;20377;-80
2023/10/13 07:55:10;;;;;;;10.85;6.68;;;;;;;16.44;100.00;93191.75;6261958;22;20015;-79
2023/10/13 07:57:54;;;;;;;13.48;6.40;;;;;;;16.43;100.00;93190.19;6311102;22;20026;-80
2023/10/13 08:03:17;;;;;;;17.65;7.30;;;;;;;16.41;100.00;93202.16;6284822;22;20098;-80
2023/10/13 08:08:40;;;;;;;15.23;6.55;;;;;;;16.47;100.00;93198.28;6310880;22;20007;-79
2023/10/13 08:11:31;;;;;;;15.45;6.72;;;;;;;16.49;100.00;93200.63;6258061;22;20340;-80
2023/10/13 08:13:59;;;;;;;14.25;6.85;;;;;;;16.52;100.00;93208.72;6283319;22;20078;-80
2023/10/13 08:16:52;;;;;;;14.45;6.78;;;;;;;16.55;100.00;93205.50;6281641;22;20003;-80
2023/10/13 08:19:20;;;;;;;12.05;6.70;;;;;;;16.62;100.00;93202.41;6281346;22;20011;-78
2023/10/13 08:21:57;;;;;;;18.20;7.00;;;;;;;16.74;100.00;93202.59;6309081;22;20049;-80
2023/10/13 08:24:55;;;;;;;15.25;6.63;;;;;;;16.78;100.00;93206.19;6310569;22;20046;-80
2023/10/13 08:27:48;;;;;;;14.98;6.72;;;;;;;16.87;100.00;93208.09;6282960;22;20448;-81
2023/10/13 08:30:28;;;;;;;13.30;6.60;;;;;;;16.94;100.00;93203.91;6311350;22;20039;-80
2023/10/13 08:32:54;;;;;;;14.98;7.20;;;;;;;17.07;100.00;93199.59;6311560;22;20065;-79
2023/10/13 08:35:54;;;;;;;13.95;7.00;;;;;;;17.09;100.00;93202.72;6258796;22;20379;-80
2023/10/13 08:38:18;;;;;;;12.82;7.05;;;;;;;17.08;100.00;93201.13;6311350;22;20448;-79
2023/10/13 08:43:50;;;;;;;15.68;7.00;;;;;;;17.24;100.00;93199.59;6310198;22;20394;-79
2023/10/13 08:46:28;;;;;;;13.18;7.60;;;;;;;17.21;100.00;93202.09;6282268;22;20015;-79
2023/10/13 08:49:06;;;;;;;14.60;8.65;;;;;;;16.99;100.00;93205.63;6282345;22;20038;-79
2023/10/13 08:52:05;;;;;;;12.95;7.88;;;;;;;16.89;100.00;93208.56;6309489;22;20041;-79
2023/10/13 08:54:33;;;;;;;15.90;9.27;;;;;;;16.81;100.00;93212.75;6282231;22;20022;-79
2023/10/13 08:57:19;;;;;;;20.13;8.00;;;;;;;16.91;100.00;93209.03;6282198;22;19999;-79
2023/10/13 08:59:53;;;;;;;15.82;7.93;;;;;;;17.03;100.00;93211.88;6283844;22;20023;-79
2023/10/13 09:02:59;;;;;;;13.15;7.38;;;;;;;17.13;100.00;93206.28;6310293;22;20022;-80
2023/10/13 09:08:07;;;;;;;14.85;7.85;;;;;;;17.20;100.00;93201.34;6310926;22;20065;-80
2023/10/13 09:11:05;;;;;;;14.43;7.40;;;;;;;17.35;100.00;93212.53;6309413;22;20515;-79
2023/10/13 09:13:43;;;;;;;14.30;7.85;;;;;;;17.51;100.00;93215.50;6261401;22;20022;-79
2023/10/13 09:19:11;;;;;;;18.00;7.18;;;;;;;18.11;100.00;93217.38;6261686;22;20432;-78
2023/10/13 09:24:31;;;;;;;10.13;6.30;;;;;;;18.14;100.00;93215.94;6281970;22;20015;-80
2023/10/13 09:27:01;;;;;;;13.80;7.13;;;;;;;18.07;100.00;93222.50;6308817;22;20003;-79
2023/10/13 09:29:29;;;;;;;16.42;7.18;;;;;;;18.07;100.00;93219.09;6282856;22;20090;-79
2023/10/13 09:32:03;;;;;;;16.02;7.70;;;;;;;18.19;100.00;93221.06;6258407;22;20004;-79
2023/10/13 09:34:30;;;;;;;13.20;7.50;;;;;;;18.34;100.00;93223.22;6283534;22;20026;-80
2023/10/13 09:37:02;;;;;;;11.48;7.10;;;;;;;18.70;100.00;93217.50;6283513;22;19999;-80
2023/10/13 09:39:40;;;;;;;13.35;7.70;;;;;;;18.37;100.00;93211.97;6311675;22;20344;-79
2023/10/13 09:42:10;;;;;;;15.65;8.02;;;;;;;18.25;100.00;93214.53;6310628;22;20030;-79
2023/10/13 09:44:37;;;;;;;15.63;7.70;;;;;;;18.27;100.00;93213.13;6258907;22;20360;-79
2023/10/13 09:47:29;;;;;;;17.50;7.85;;;;;;;18.12;100.00;93212.84;6283812;22;20072;-80
2023/10/13 09:49:57;;;;;;;15.05;7.55;;;;;;;18.38;100.00;93204.84;6310010;22;20466;-80
2023/10/13 09:52:26;;;;;;;17.80;8.35;;;;;;;18.62;100.00;93204.25;6283069;22;20011;-80
2023/10/13 09:55:15;;;;;;;13.40;7.00;;;;;;;18.77;100.00;93202.97;6289674;22;20047;-82
2023/10/13 09:57:48;;;;;;;14.48;7.82;;;;;;;19.16;100.00;93207.13;6317819;22;20027;-81
2023/10/13 10:03:15;;;;;;;16.90;7.65;;;;;;;19.34;100.00;93200.63;6318102;22;20114;-80
2023/10/13 10:06:03;;;;;;;15.18;8.65;;;;;;;19.19;100.00;93211.81;6290960;22;20019;-80
2023/10/13 10:08:38;;;;;;;18.98;8.65;;;;;;;18.91;100.00;93206.97;6317576;22;20022;-80
2023/10/13 10:11:04;;;;;;;19.88;9.18;;;;;;;18.75;100.00;93203.28;6317108;22;20015;-81
2023/10/13 10:13:57;;;;;;;14.63;8.45;;;;;;;18.51;100.00;93199.31;6291255;22;19999;-80
2023/10/13 10:16:37;;;;;;;14.43;8.05;;;;;;;18.55;100.00;93193.38;6317589;22;20011;-81
2023/10/13 10:19:03;;;;;;;20.50;8.07;;;;;;;18.52;100.00;93194.78;6284174;22;20011;-79
2023/10/13 10:21:35;;;;;;;14.77;8.20;;;;;;;18.77;100.00;93195.00;6257143;22;20013;-80
2023/10/13 10:24:08;;;;;;;15.88;8.20;;;;;;;18.70;100.00;93195.50;6309286;22;20056;-78
2023/10/13 10:26:33;;;;;;;14.02;7.90;;;;;;;18.73;100.00;93192.19;6282674;22;20039;-77
2023/10/13 10:29:01;;;;;;;18.52;8.18;;;;;;;18.67;100.00;93193.50;6257535;22;20003;-80
2023/10/13 10:31:41;;;;;;;13.20;8.55;;;;;;;18.64;100.00;93191.47;6283107;22;20063;-79
2023/10/13 10:34:14;;;;;;;14.23;8.07;;;;;;;18.58;100.00;93192.75;6309888;22;20333;-79
2023/10/13 10:36:46;;;;;;;19.50;8.07;;;;;;;18.48;100.00;93193.88;6282465;22;20316;-78
2023/10/13 10:39:12;;;;;;;;;;;;;;;18.52;100.00;93187.63;6311112;22;20012;-79
2023/10/13 10:44:16;;;;;;;15.55;7.85;;;;;;;18.56;100.00;93185.13;6310179;22;20407;-79
2023/10/13 10:46:52;;;;;;;15.63;7.88;;;;;;;18.44;100.00;93185.78;6282812;22;20038;-79
2023/10/13 10:49:29;;;;;;;15.93;7.85;;;;;;;18.43;100.00;93181.56;6282649;22;20106;-78
2023/10/13 10:52:06;;;;;;;13.23;7.25;;;;;;;18.42;100.00;93180.03;6282265;22;20444;-79
2023/10/13 10:54:31;;;;;;;14.30;8.57;;;;;;;18.24;100.00;93179.31;6310794;22;20408;-78
2023/10/13 10:57:11;;;;;;;18.17;7.85;;;;;;;18.08;100.00;93184.34;6257450;22;20039;-79
2023/10/13 10:59:39;;;;;;;15.93;8.75;;;;;;;18.15;100.00;93172.47;6309632;22;20102;-79
2023/10/13 11:02:08;;;;;;;18.63;8.52;;;;;;;18.10;100.00;93173.41;6282282;22;20003;-79
2023/10/13 11:04:40;;;;;;;14.43;8.57;;;;;;;17.95;100.00;93166.75;6309597;22;20038;-79
2023/10/13 11:07:07;;;;;;;18.02;8.20;;;;;;;18.15;100.00;93169.81;6257314;22;20057;-79
2023/10/13 11:09:37;;;;;;;15.23;8.55;;;;;;;18.12;100.00;93165.16;6256587;22;20018;-79
2023/10/13 11:12:16;;;;;;;14.40;8.65;;;;;;;18.13;100.00;93167.50;6256571;22;20019;-79
2023/10/13 11:14:50;;;;;;;17.55;9.07;;;;;;;18.24;100.00;93152.03;6281443;22;20007;-79
2023/10/13 11:17:42;;;;;;;15.38;8.30;;;;;;;18.42;100.00;93155.41;6308892;22;20010;-78
2023/10/13 11:20:25;;;;;;;21.20;8.57;;;;;;;18.64;100.00;93154.34;6308638;22;20058;-79
2023/10/13 11:22:55;;;;;;;19.20;8.02;;;;;;;18.62;100.00;93153.88;6309133;22;20396;-79
2023/10/13 11:25:34;;;;;;;13.55;7.68;;;;;;;18.49;100.00;93148.50;6308794;22;20012;-79
2023/10/13 11:28:20;;;;;;;13.40;8.07;;;;;;;18.45;100.00;93142.28;6281118;22;20021;-79
2023/10/13 11:30:51;;;;;;;14.00;8.10;;;;;;;18.44;100.00;93139.94;6308619;22;20356;-78
2023/10/13 11:33:23;;;;;;;13.82;7.90;;;;;;;18.61;100.00;93139.84;6281886;22;20038;-79
2023/10/13 11:41:21;;;;;;;14.68;7.60;;;;;;;18.88;100.00;93127.25;6281541;22;20017;-79
2023/10/13 11:43:52;;;;;;;18.17;8.63;;;;;;;18.64;100.00;93127.81;6282217;22;20011;-79
2023/10/13 11:51:45;;;;;;;18.40;8.10;;;;;;;18.64;100.00;93127.81;6282144;22;20007;-79
2023/10/13 11:54:12;;;;;;;13.13;7.10;;;;;;;18.66;100.00;93126.41;6282510;22;20329;-79
2023/10/13 11:56:38;;;;;;;16.30;8.50;;;;;;;18.46;100.00;93117.34;6282349;22;20011;-79
2023/10/13 11:59:05;;;;;;;14.80;8.20;;;;;;;18.49;100.00;93103.44;6256612;22;20145;-79
2023/10/13 12:04:51;;;;;;;16.17;8.50;;;;;;;18.23;100.00;93106.19;6225519;22;20023;-79
2023/10/13 12:07:20;;;;;;;20.48;8.95;;;;;;;18.20;100.00;93108.72;6266343;22;20015;-78
2023/10/13 12:12:18;;;;;;;16.75;8.18;;;;;;;18.12;100.00;93102.34;6308207;22;20011;-78
2023/10/13 12:14:55;;;;;;;20.65;8.00;;;;;;;18.21;100.00;93102.31;6309200;22;20045;-79
2023/10/13 12:17:36;;;;;;;16.25;8.02;;;;;;;18.43;100.00;93101.28;6255590;22;20011;-78
2023/10/13 12:20:05;;;;;;;13.23;7.85;;;;;;;18.44;100.00;93098.31;6281466;22;20041;-78
2023/10/13 12:22:42;;;;;;;13.82;8.10;;;;;;;18.42;100.00;93094.44;6308938;22;20003;-79
2023/10/13 12:27:57;;;;;;;14.43;7.97;;;;;;;18.57;100.00;93083.25;6308512;22;20098;-79
2023/10/13 12:30:36;;;;;;;15.07;7.28;;;;;;;18.45;100.00;93089.25;6282411;22;20015;-78
2023/10/13 12:33:11;;;;;;;14.45;7.50;;;;;;;18.45;100.00;93089.25;6308822;22;20011;-79
2023/10/13 12:36:03;;;;;;;15.05;7.18;;;;;;;18.43;100.00;93088.03;6308793;22;20011;-79
2023/10/13 12:52:56;;;;;;;15.93;8.00;;;;;;;18.63;100.00;93074.03;6310030;22;20041;-79
2023/10/13 12:55:13;;;;;;;14.82;7.88;;;;;;;18.54;100.00;93069.88;6297902;22;20461;-80
2023/10/13 12:57:43;;;;;;;15.48;7.60;;;;;;;18.38;100.00;93059.06;6309823;22;20373;-79
2023/10/13 13:00:21;;;;;;;16.55;8.00;;;;;;;18.44;100.00;93066.50;6308798;22;20015;-79
2023/10/13 13:02:47;;;;;;;10.35;7.03;;;;;;;18.63;100.00;93063.44;6233022;22;20013;-79
2023/10/13 13:05:13;;;;;;;14.27;7.90;;;;;;;18.43;100.00;93061.53;6259750;22;20027;-79
2023/10/13 13:07:52;;;;;;;13.75;6.82;;;;;;;18.54;100.00;93056.63;6311141;22;20067;-78
2023/10/13 13:10:18;;;;;;;18.58;7.78;;;;;;;18.54;100.00;93059.28;6284484;22;20078;-79
2023/10/13 13:12:44;;;;;;;12.75;7.22;;;;;;;18.50;100.00;93059.91;6311206;22;19999;-80
2023/10/13 13:15:11;;;;;;;12.10;6.28;;;;;;;18.70;100.00;93057.59;6283981;22;20011;-79
2023/10/13 13:17:38;;;;;;;13.70;7.20;;;;;;;18.63;100.00;93058.13;6311993;22;20433;-79
2023/10/13 13:20:11;;;;;;;15.23;7.10;;;;;;;18.69;100.00;93053.41;6312429;22;20007;-80
2023/10/13 13:22:39;;;;;;;18.02;7.45;;;;;;;18.67;100.00;93047.66;6312172;22;20090;-78
2023/10/13 13:25:10;;;;;;;17.60;7.55;;;;;;;18.64;100.00;93043.78;6284967;22;20015;-80
2023/10/13 13:27:36;;;;;;;13.13;7.65;;;;;;;18.68;100.00;93049.19;6285041;22;20022;-79
2023/10/13 13:30:11;;;;;;;14.57;7.63;;;;;;;18.44;100.00;93050.59;6284959;22;20078;-80
2023/10/13 13:32:38;;;;;;;12.45;7.22;;;;;;;18.54;100.00;93048.69;6311796;22;20683;-78
2023/10/13 13:35:05;;;;;;;11.48;7.28;;;;;;;18.45;100.00;93040.78;6310918;22;20074;-79
2023/10/13 13:37:34;;;;;;;13.27;7.40;;;;;;;18.54;100.00;93048.69;6311938;22;20514;-78
2023/10/13 13:40:15;;;;;;;15.82;7.88;;;;;;;18.54;100.00;93038.84;6284850;22;20074;-79
2023/10/13 13:42:45;;;;;;;16.85;7.45;;;;;;;18.46;100.00;93037.00;6311396;22;20519;-79
2023/10/13 13:45:21;;;;;;;15.25;7.68;;;;;;;18.49;100.00;93031.84;6312571;22;20470;-80
2023/10/13 13:47:53;;;;;;;16.73;7.80;;;;;;;18.61;100.00;93038.34;6311732;22;20015;-79
2023/10/13 13:50:28;;;;;;;14.13;6.78;;;;;;;18.66;100.00;93025.66;6311812;22;20033;-80
2023/10/13 13:53:00;;;;;;;12.07;7.15;;;;;;;18.51;100.00;93034.97;6312439;22;20551;-80
2023/10/13 13:55:28;;;;;;;12.75;7.05;;;;;;;18.71;100.00;93024.69;6282725;22;20058;-80
2023/10/13 13:57:57;;;;;;;14.40;6.22;;;;;;;18.56;100.00;93031.34;6309798;22;20007;-81
2023/10/13 14:00:36;;;;;;;15.30;7.38;;;;;;;18.49;100.00;93031.84;6308568;22;20448;-81
2023/10/13 14:03:15;;;;;;;18.42;7.22;;;;;;;18.41;100.00;93023.97;6282088;22;20353;-80
2023/10/13 14:05:42;;;;;;;10.27;6.70;;;;;;;18.36;100.00;93021.50;6283820;22;20033;-81
2023/10/13 14:08:11;;;;;;;16.65;7.20;;;;;;;18.44;100.00;93029.41;6309064;22;20002;-80
2023/10/13 14:13:47;;;;;;;13.15;7.82;;;;;;;18.15;100.00;93022.25;6308589;22;20015;-80
2023/10/13 14:16:16;;;;;;;11.68;7.50;;;;;;;18.01;100.00;93030.41;6285712;22;20068;-80
2023/10/13 14:18:50;;;;;;;14.40;7.50;;;;;;;18.03;100.00;93024.78;6308741;22;20364;-80
2023/10/13 14:21:16;;;;;;;11.63;7.45;;;;;;;18.21;100.00;93025.47;6309594;22;20445;-80
2023/10/13 14:23:45;;;;;;;16.77;7.43;;;;;;;18.21;100.00;93020.16;6280790;22;20010;-79
2023/10/13 14:26:20;;;;;;;10.80;7.13;;;;;;;18.29;100.00;93017.47;6309499;22;20015;-79
2023/10/13 14:29:00;;;;;;;13.98;7.05;;;;;;;18.39;100.00;93015.53;6310420;22;20078;-79
2023/10/13 14:31:29;;;;;;;12.27;7.03;;;;;;;18.48;100.00;93013.63;6281333;22;20452;-79
2023/10/13 14:33:54;;;;;;;13.80;7.43;;;;;;;18.64;100.00;93006.66;6308768;22;19999;-80
2023/10/13 14:36:20;;;;;;;12.88;7.22;;;;;;;18.51;100.00;93010.34;6308606;22;20007;-79
2023/10/13 14:38:49;;;;;;;11.00;7.35;;;;;;;18.56;100.00;93004.06;6309140;22;19999;-79
2023/10/13 14:41:17;;;;;;;14.07;7.55;;;;;;;18.65;100.00;93004.78;6281528;22;20015;-80
2023/10/13 14:43:47;;;;;;;15.75;7.72;;;;;;;18.59;100.00;93008.72;6281997;22;19995;-79
2023/10/13 14:46:22;;;;;;;14.80;7.50;;;;;;;18.72;100.00;93010.34;6281353;22;20027;-79
2023/10/13 14:48:48;;;;;;;14.65;7.82;;;;;;;18.85;100.00;93001.38;6308079;22;20033;-79
2023/10/13 14:51:16;;;;;;;15.50;7.90;;;;;;;18.77;100.00;93004.84;6308760;22;20003;-79
2023/10/13 14:53:48;;;;;;;16.95;8.18;;;;;;;18.92;100.00;92998.97;6256134;22;20403;-80
2023/10/13 14:56:15;;;;;;;;;;;;;;;19.00;100.00;93004.53;6276620;22;20026;-80
2023/10/13 14:58:42;;;;;;;11.57;8.15;;;;;;;18.86;100.00;93002.13;6278029;22;20004;-80
2023/10/13 15:01:16;;;;;;;14.18;7.85;;;;;;;18.82;100.00;93002.00;6275698;22;20459;-79
2023/10/13 15:03:50;;;;;;;14.20;8.82;;;;;;;18.74;100.00;93008.13;6277446;22;20018;-79
2023/10/13 15:06:20;;;;;;;16.75;9.52;;;;;;;18.59;100.00;92998.09;6275893;22;20020;-79
2023/10/13 15:08:47;;;;;;;12.55;8.48;;;;;;;18.60;100.00;92997.00;6250217;22;20035;-79
2023/10/13 15:11:18;;;;;;;16.73;9.20;;;;;;;18.46;100.00;92984.81;6275583;22;20003;-79
2023/10/13 15:13:44;;;;;;;17.25;10.15;;;;;;;18.34;100.00;92986.59;6277362;22;20039;-78
2023/10/13 15:16:26;;;;;;;17.20;10.15;;;;;;;18.27;100.00;92993.16;6276951;22;20003;-79
2023/10/13 15:18:53;;;;;;;18.58;9.98;;;;;;;18.21;100.00;92989.16;6276979;22;20007;-80
2023/10/13 15:21:26;;;;;;;14.13;9.82;;;;;;;18.37;100.00;92992.00;6275483;22;20017;-79
2023/10/13 15:23:53;;;;;;;18.17;11.02;;;;;;;18.35;100.00;92991.56;6275541;22;20012;-78